Time;durP1;ratioP1;P1;durP2;ratioP2;P2;SDS_P1;SDS_P2;PMS_P1;PMS_P2;Temp;Humidity;BMP_temperature;BMP_pressure;BME280_temperature;BME280_humidity;BME280_pressure;Samples;Min_cycle;Max_cycle;Signal;HPM_P1;HPM_P2
2023/04/04 00:01:32;;;;;;;;;;;1.50;80.10;;;;;;4985697;28;20159;-83
2023/04/04 00:04:00;;;;;;;;;;;1.50;80.30;;;;;;5004064;28;19967;-82
2023/04/04 00:06:26;;;;;;;;;;;1.50;80.30;;;;;;5001080;28;19937;-82
2023/04/04 00:09:04;;;;;;;;;;;1.60;79.20;;;;;;5002513;28;20489;-82
2023/04/04 00:11:48;;;;;;;;;;;1.50;80.20;;;;;;5004359;28;19913;-82
2023/04/04 00:14:14;;;;;;;;;;;1.40;80.70;;;;;;4987518;28;19958;-83
2023/04/04 00:16:53;;;;;;;;;;;1.40;80.50;;;;;;5008098;28;19940;-83
2023/04/04 00:19:24;;;;;;;;;;;1.30;80.60;;;;;;5001594;28;19905;-83
2023/04/04 00:22:27;;;;;;;;;;;1.30;81.10;;;;;;5003795;28;19909;-81
2023/04/04 00:24:57;;;;;;;;;;;1.30;81.60;;;;;;4997922;28;19909;-81
2023/04/04 00:27:23;;;;;;;;;;;1.30;81.30;;;;;;5001387;28;19905;-81
2023/04/04 00:29:53;;;;;;;;;;;1.30;81.50;;;;;;4990816;28;19920;-81
2023/04/04 00:32:22;;;;;;;;;;;1.20;82.00;;;;;;5004665;28;19909;-82
2023/04/04 00:34:56;;;;;;;;;;;1.10;82.60;;;;;;5000800;28;19917;-83
2023/04/04 00:37:26;;;;;;;;;;;1.10;83.10;;;;;;5009984;28;19921;-82
2023/04/04 00:39:58;;;;;;;;;;;1.00;83.80;;;;;;4986917;28;20007;-83
2023/04/04 00:47:57;;;;;;;;;;;1.00;85.70;;;;;;5024694;28;19912;-83
2023/04/04 00:53:25;;;;;;;;;;;1.00;87.10;;;;;;5029214;28;20286;-82
2023/04/04 00:58:55;;;;;;;;;;;1.00;88.20;;;;;;5028919;28;19912;-83
2023/04/04 01:04:24;;;;;;;;;;;1.10;89.60;;;;;;5031607;28;19996;-83
2023/04/04 01:06:52;;;;;;;;;;;1.00;89.30;;;;;;5023480;28;20361;-84
2023/04/04 01:09:17;;;;;;;;;;;1.10;89.90;;;;;;5015703;28;19913;-83
2023/04/04 01:11:43;;;;;;;;;;;1.00;90.00;;;;;;5031078;28;20007;-82
2023/04/04 01:14:08;;;;;;;;;;;1.00;90.00;;;;;;5013077;28;19960;-83
2023/04/04 01:16:43;;;;;;;;;;;1.00;90.50;;;;;;5027572;28;20001;-84
2023/04/04 01:19:13;;;;;;;;;;;0.90;90.70;;;;;;5023746;28;19905;-82
2023/04/04 01:21:41;;;;;;;;;;;0.90;91.20;;;;;;5027311;28;19919;-81
2023/04/04 01:24:08;;;;;;;;;;;0.90;91.10;;;;;;5016424;28;19905;-82
2023/04/04 01:26:36;;;;;;;;;;;0.90;91.00;;;;;;5025804;28;19920;-82
2023/04/04 01:29:01;;;;;;;;;;;0.90;91.20;;;;;;5024591;28;20380;-82
2023/04/04 01:31:27;;;;;;;;;;;0.90;91.10;;;;;;5028162;28;19913;-81
2023/04/04 01:34:03;;;;;;;;;;;0.80;91.20;;;;;;5024644;28;19909;-82
2023/04/04 01:36:34;;;;;;;;;;;0.80;91.30;;;;;;5013479;28;20354;-81
2023/04/04 01:39:19;;;;;;;;;;;0.80;91.40;;;;;;5024217;28;19955;-82
2023/04/04 01:41:46;;;;;;;;;;;0.90;91.00;;;;;;5013076;28;20015;-82
2023/04/04 01:44:14;;;;;;;;;;;1.00;90.90;;;;;;5001865;28;19917;-80
2023/04/04 01:46:40;;;;;;;;;;;1.00;90.60;;;;;;5021976;28;19941;-82
2023/04/04 01:49:06;;;;;;;;;;;1.00;90.90;;;;;;5010983;28;19923;-82
2023/04/04 01:51:32;;;;;;;;;;;1.00;91.10;;;;;;5032908;28;19912;-82
2023/04/04 01:53:59;;;;;;;;;;;1.10;90.60;;;;;;5028338;28;19916;-82
2023/04/04 01:56:26;;;;;;;;;;;1.20;90.50;;;;;;5021503;28;19999;-82
2023/04/04 01:58:53;;;;;;;;;;;1.30;90.20;;;;;;5019818;28;19909;-82
2023/04/04 02:01:18;;;;;;;;;;;1.40;89.90;;;;;;5017580;28;19913;-82
2023/04/04 02:03:48;;;;;;;;;;;1.50;89.70;;;;;;5023619;28;20039;-82
2023/04/04 02:06:14;;;;;;;;;;;1.60;89.00;;;;;;5022215;28;19959;-82
2023/04/04 02:08:45;;;;;;;;;;;1.70;87.80;;;;;;5018837;28;19956;-82
2023/04/04 02:11:11;;;;;;;;;;;1.70;87.50;;;;;;5028474;28;19908;-82
2023/04/04 02:13:40;;;;;;;;;;;1.70;87.10;;;;;;5033080;28;19905;-82
2023/04/04 02:16:14;;;;;;;;;;;1.60;87.30;;;;;;5030661;28;19913;-83
2023/04/04 02:18:40;;;;;;;;;;;1.60;87.40;;;;;;5018421;28;19966;-83
2023/04/04 02:21:16;;;;;;;;;;;1.40;87.40;;;;;;5035182;28;19909;-83
2023/04/04 02:23:42;;;;;;;;;;;1.40;88.50;;;;;;5006282;28;19916;-82
2023/04/04 02:26:17;;;;;;;;;;;1.30;89.10;;;;;;5024313;28;19905;-83
2023/04/04 02:28:53;;;;;;;;;;;1.20;89.50;;;;;;5011910;28;19909;-82
2023/04/04 02:31:30;;;;;;;;;;;1.10;90.00;;;;;;5020979;28;19912;-83
2023/04/04 02:33:59;;;;;;;;;;;1.00;90.20;;;;;;5030254;28;20020;-83
2023/04/04 02:36:29;;;;;;;;;;;1.00;90.50;;;;;;5032319;28;19905;-83
2023/04/04 02:38:57;;;;;;;;;;;0.90;90.90;;;;;;5005243;28;19905;-84
2023/04/04 02:41:27;;;;;;;;;;;0.90;91.10;;;;;;5018278;28;19904;-83
2023/04/04 02:43:53;;;;;;;;;;;0.90;91.20;;;;;;5025754;28;19913;-85
2023/04/04 02:46:19;;;;;;;;;;;0.80;91.30;;;;;;5024964;28;19905;-83
2023/04/04 02:48:46;;;;;;;;;;;0.80;91.60;;;;;;5033313;28;19909;-83
2023/04/04 02:51:23;;;;;;;;;;;0.60;92.10;;;;;;5007511;28;19948;-83
2023/04/04 02:53:50;;;;;;;;;;;0.70;92.30;;;;;;5024595;28;19909;-84
2023/04/04 02:56:22;;;;;;;;;;;0.60;92.70;;;;;;5014633;28;19913;-85
2023/04/04 02:58:51;;;;;;;;;;;0.70;92.50;;;;;;5015695;28;19952;-84
2023/04/04 03:01:27;;;;;;;;;;;0.70;92.50;;;;;;5027055;28;19912;-85
2023/04/04 03:03:59;;;;;;;;;;;0.70;92.70;;;;;;5027162;28;19967;-85
2023/04/04 03:06:30;;;;;;;;;;;0.60;93.00;;;;;;5028158;28;19944;-84
2023/04/04 03:08:59;;;;;;;;;;;0.60;93.20;;;;;;5024913;28;19979;-82
2023/04/04 03:11:27;;;;;;;;;;;0.60;93.60;;;;;;5019702;28;19905;-83
2023/04/04 03:14:06;;;;;;;;;;;0.50;93.50;;;;;;5020386;28;19909;-84
2023/04/04 03:16:40;;;;;;;;;;;0.50;93.70;;;;;;5026748;28;19920;-85
2023/04/04 03:19:08;;;;;;;;;;;0.50;93.90;;;;;;5020352;28;20007;-85
2023/04/04 03:21:34;;;;;;;;;;;0.50;94.20;;;;;;5013409;28;19917;-84
2023/04/04 03:24:22;;;;;;;;;;;0.40;94.40;;;;;;5010353;28;19905;-85
2023/04/04 03:26:57;;;;;;;;;;;0.40;94.60;;;;;;5027404;28;19905;-84
2023/04/04 03:29:32;;;;;;;;;;;0.40;94.70;;;;;;5034585;28;19967;-84
2023/04/04 03:31:59;;;;;;;;;;;0.40;94.90;;;;;;5020594;28;19991;-84
2023/04/04 03:34:26;;;;;;;;;;;0.40;94.90;;;;;;5034079;28;19911;-85
2023/04/04 03:36:54;;;;;;;;;;;0.30;95.20;;;;;;5023437;28;20339;-82
2023/04/04 03:39:33;;;;;;;;;;;0.40;95.20;;;;;;5026437;28;19948;-81
2023/04/04 03:42:01;;;;;;;;;;;0.30;95.20;;;;;;5000837;28;20641;-82
2023/04/04 03:44:31;;;;;;;;;;;0.30;95.40;;;;;;5004022;28;19921;-82
2023/04/04 03:46:56;;;;;;;;;;;0.30;95.40;;;;;;5010251;28;19913;-83
2023/04/04 03:49:23;;;;;;;;;;;0.30;95.60;;;;;;5014542;28;19955;-83
2023/04/04 03:51:48;;;;;;;;;;;0.40;95.30;;;;;;5019856;28;19909;-83
2023/04/04 03:54:16;;;;;;;;;;;0.30;95.40;;;;;;5029190;28;20278;-82
2023/04/04 03:56:42;;;;;;;;;;;0.30;96.10;;;;;;5027514;28;19908;-82
2023/04/04 03:59:09;;;;;;;;;;;0.30;95.90;;;;;;5017537;28;19913;-82
2023/04/04 04:01:37;;;;;;;;;;;0.20;96.10;;;;;;5010982;28;20028;-83
2023/04/04 04:04:03;;;;;;;;;;;0.20;96.10;;;;;;5022648;28;19957;-83
2023/04/04 04:06:30;;;;;;;;;;;0.20;96.10;;;;;;5022358;28;19913;-83
2023/04/04 04:08:58;;;;;;;;;;;0.30;96.00;;;;;;5033294;28;19992;-82
2023/04/04 04:11:28;;;;;;;;;;;0.30;96.00;;;;;;5027695;28;19912;-83
2023/04/04 04:13:54;;;;;;;;;;;0.30;96.10;;;;;;5019941;28;20661;-81
2023/04/04 04:16:24;;;;;;;;;;;0.30;96.00;;;;;;5020605;28;19909;-80
2023/04/04 04:18:49;;;;;;;;;;;0.30;95.80;;;;;;5008763;28;19906;-81
2023/04/04 04:21:17;;;;;;;;;;;0.30;96.10;;;;;;5028870;28;19912;-77
2023/04/04 04:23:44;;;;;;;;;;;0.30;96.10;;;;;;4998758;28;19912;-79
2023/04/04 04:26:12;;;;;;;;;;;0.30;95.90;;;;;;5017489;28;19952;-78
2023/04/04 04:28:40;;;;;;;;;;;0.30;95.80;;;;;;5000833;28;19908;-79
2023/04/04 04:31:09;;;;;;;;;;;0.30;96.00;;;;;;5013106;28;19913;-78
2023/04/04 04:33:40;;;;;;;;;;;0.30;96.10;;;;;;4999280;28;19913;-79
2023/04/04 04:36:14;;;;;;;;;;;0.20;96.10;;;;;;5009313;28;20792;-83
2023/04/04 04:38:40;;;;;;;;;;;0.20;96.60;;;;;;5025227;28;19909;-79
2023/04/04 04:41:12;;;;;;;;;;;0.30;96.10;;;;;;5014657;28;20383;-80
2023/04/04 04:43:38;;;;;;;;;;;0.30;96.40;;;;;;5006297;28;19920;-80
2023/04/04 04:46:07;;;;;;;;;;;0.40;96.50;;;;;;5035272;28;19913;-80
2023/04/04 04:48:42;;;;;;;;;;;0.40;96.30;;;;;;5015232;28;20003;-79
2023/04/04 04:51:10;;;;;;;;;;;0.40;96.20;;;;;;5024641;28;19909;-81
2023/04/04 04:53:37;;;;;;;;;;;0.50;96.10;;;;;;5015313;28;19912;-81
2023/04/04 04:56:04;;;;;;;;;;;0.70;95.50;;;;;;5028698;28;19913;-84
2023/04/04 04:58:31;;;;;;;;;;;0.80;95.40;;;;;;5018861;28;20023;-80
2023/04/04 05:01:05;;;;;;;;;;;0.80;95.20;;;;;;5021780;28;19913;-79
2023/04/04 05:03:35;;;;;;;;;;;0.90;94.80;;;;;;5010579;28;19902;-81
2023/04/04 05:06:09;;;;;;;;;;;0.90;94.50;;;;;;5032103;28;19909;-81
2023/04/04 05:08:34;;;;;;;;;;;1.30;93.80;;;;;;5027423;28;20011;-84
2023/04/04 05:11:00;;;;;;;;;;;1.90;92.60;;;;;;4998104;28;20051;-81
2023/04/04 05:13:26;;;;;;;;;;;3.10;90.10;;;;;;5024334;28;19920;-80
2023/04/04 05:15:52;;;;;;;;;;;4.50;81.70;;;;;;5019449;28;20359;-81
2023/04/04 05:18:19;;;;;;;;;;;5.80;74.60;;;;;;5017588;28;19905;-81
2023/04/04 05:20:54;;;;;;;;;;;6.70;68.30;;;;;;5023985;28;19948;-81
2023/04/04 05:23:33;;;;;;;;;;;6.80;65.30;;;;;;5017118;28;19905;-84
2023/04/04 05:26:03;;;;;;;;;;;6.10;67.10;;;;;;5017605;28;19913;-84
2023/04/04 05:28:28;;;;;;;;;;;7.70;69.90;;;;;;5017958;28;19917;-79
2023/04/04 05:30:58;;;;;;;;;;;8.90;59.90;;;;;;5009382;28;19961;-82
2023/04/04 05:33:25;;;;;;;;;;;8.20;61.10;;;;;;5022168;28;19923;-81
2023/04/04 05:35:59;;;;;;;;;;;9.70;59.00;;;;;;5021146;28;19952;-80
2023/04/04 05:38:27;;;;;;;;;;;9.50;56.00;;;;;;5021370;28;20444;-80
2023/04/04 05:40:58;;;;;;;;;;;10.80;55.20;;;;;;5022331;28;19913;-80
2023/04/04 05:43:24;;;;;;;;;;;11.80;52.10;;;;;;5004640;28;19920;-80
2023/04/04 05:45:50;;;;;;;;;;;12.30;51.10;;;;;;5021515;28;19905;-81
2023/04/04 05:48:18;;;;;;;;;;;12.90;49.10;;;;;;5019100;28;19966;-80
2023/04/04 05:50:44;;;;;;;;;;;11.40;50.70;;;;;;5005239;28;19948;-81
2023/04/04 05:53:10;;;;;;;;;;;12.40;49.80;;;;;;5026753;28;19912;-80
2023/04/04 05:55:37;;;;;;;;;;;13.00;47.70;;;;;;5026052;28;19962;-80
2023/04/04 05:58:12;;;;;;;;;;;12.90;47.80;;;;;;5025267;28;20046;-79
2023/04/04 06:00:42;;;;;;;;;;;13.60;46.90;;;;;;5010118;28;19905;-80
2023/04/04 06:03:11;;;;;;;;;;;13.20;45.80;;;;;;5027741;28;19959;-81
2023/04/04 06:05:37;;;;;;;;;;;13.00;46.80;;;;;;5007971;28;19961;-80
2023/04/04 06:08:03;;;;;;;;;;;13.20;46.60;;;;;;5029096;28;20000;-80
2023/04/04 06:10:30;;;;;;;;;;;12.70;46.40;;;;;;5026403;28;19921;-79
2023/04/04 06:12:56;;;;;;;;;;;13.80;45.70;;;;;;5014239;28;19916;-80
2023/04/04 06:15:24;;;;;;;;;;;14.10;45.10;;;;;;5014969;28;19904;-79
2023/04/04 06:17:53;;;;;;;;;;;16.00;43.40;;;;;;5008655;28;20063;-80
2023/04/04 06:20:21;;;;;;;;;;;16.70;41.40;;;;;;5016303;28;19999;-81
2023/04/04 06:22:47;;;;;;;;;;;16.70;41.40;;;;;;5016641;28;20381;-80
2023/04/04 06:25:13;;;;;;;;;;;17.50;40.00;;;;;;5017414;28;20592;-80
2023/04/04 06:27:43;;;;;;;;;;;17.90;39.70;;;;;;5021418;28;19905;-81
2023/04/04 06:30:09;;;;;;;;;;;16.40;39.60;;;;;;5027279;28;19909;-80
2023/04/04 06:32:35;;;;;;;;;;;17.20;40.00;;;;;;5023975;28;20139;-82
2023/04/04 06:35:03;;;;;;;;;;;17.80;38.60;;;;;;5014933;28;19999;-81
2023/04/04 06:37:30;;;;;;;;;;;18.60;38.90;;;;;;5027192;28;19924;-82
2023/04/04 06:40:00;;;;;;;;;;;20.20;38.00;;;;;;5015151;28;19912;-81
2023/04/04 06:42:33;;;;;;;;;;;19.30;35.80;;;;;;5029508;28;19996;-80
2023/04/04 06:45:00;;;;;;;;;;;17.50;38.70;;;;;;5024344;28;20387;-80
2023/04/04 06:47:27;;;;;;;;;;;15.20;38.80;;;;;;5031961;28;19917;-79
2023/04/04 06:49:55;;;;;;;;;;;15.80;40.30;;;;;;5035074;28;19908;-80
2023/04/04 06:52:34;;;;;;;;;;;15.90;39.60;;;;;;5026951;28;19905;-80
2023/04/04 06:55:02;;;;;;;;;;;16.10;39.80;;;;;;5012529;28;19913;-80
2023/04/04 06:57:27;;;;;;;;;;;17.20;40.20;;;;;;5033501;28;20783;-80
2023/04/04 06:59:54;;;;;;;;;;;18.40;38.40;;;;;;5019866;28;19905;-80
2023/04/04 07:02:20;;;;;;;;;;;18.30;38.60;;;;;;5003726;28;19920;-81
2023/04/04 07:04:57;;;;;;;;;;;19.30;36.90;;;;;;5013334;28;19955;-80
2023/04/04 07:07:25;;;;;;;;;;;18.80;37.10;;;;;;5003384;28;20368;-81
2023/04/04 07:09:53;;;;;;;;;;;20.20;36.60;;;;;;5029363;28;20372;-79
2023/04/04 07:12:19;;;;;;;;;;;19.90;35.90;;;;;;5025478;28;19944;-82
2023/04/04 07:14:48;;;;;;;;;;;20.30;36.00;;;;;;5005950;28;20000;-80
2023/04/04 07:17:13;;;;;;;;;;;20.60;35.40;;;;;;5003761;28;19909;-80
2023/04/04 07:19:41;;;;;;;;;;;21.60;34.80;;;;;;5012556;28;19911;-79
2023/04/04 07:22:14;;;;;;;;;;;20.60;35.60;;;;;;5035194;28;19990;-81
2023/04/04 07:24:41;;;;;;;;;;;20.70;34.90;;;;;;5002635;28;19909;-80
2023/04/04 07:27:06;;;;;;;;;;;20.80;34.70;;;;;;5015293;28;19992;-80
2023/04/04 07:29:32;;;;;;;;;;;19.30;35.20;;;;;;5021971;28;19996;-79
2023/04/04 07:31:58;;;;;;;;;;;18.40;36.60;;;;;;5030552;28;19915;-80
2023/04/04 07:34:25;;;;;;;;;;;20.50;36.00;;;;;;5009543;28;19951;-80
2023/04/04 07:36:52;;;;;;;;;;;20.20;35.30;;;;;;5017941;28;20593;-80
2023/04/04 07:39:21;;;;;;;;;;;20.80;34.80;;;;;;5018608;28;19958;-80
2023/04/04 07:41:53;;;;;;;;;;;21.20;34.30;;;;;;5008972;28;19912;-79
2023/04/04 07:44:18;;;;;;;;;;;15.70;37.80;;;;;;5024438;28;19923;-79
2023/04/04 07:46:44;;;;;;;;;;;14.60;38.70;;;;;;5026435;28;19987;-80
2023/04/04 07:49:10;;;;;;;;;;;14.20;40.50;;;;;;5031803;28;19909;-79
2023/04/04 07:51:43;;;;;;;;;;;14.40;41.30;;;;;;5003793;28;20012;-79
2023/04/04 07:54:10;;;;;;;;;;;13.90;41.00;;;;;;5015779;28;20266;-79
2023/04/04 07:56:35;;;;;;;;;;;12.40;41.30;;;;;;5009267;28;20259;-79
2023/04/04 07:59:06;;;;;;;;;;;14.00;41.90;;;;;;5015597;28;19919;-79
2023/04/04 08:01:31;;;;;;;;;;;15.60;40.80;;;;;;5017297;28;19906;-79
2023/04/04 08:04:04;;;;;;;;;;;15.70;38.50;;;;;;5031738;28;20416;-79
2023/04/04 08:06:35;;;;;;;;;;;13.20;41.50;;;;;;5015335;28;19920;-79
2023/04/04 08:09:03;;;;;;;;;;;12.90;41.30;;;;;;5013538;28;20376;-79
2023/04/04 08:11:30;;;;;;;;;;;11.60;43.00;;;;;;5022573;28;19974;-78
2023/04/04 08:13:55;;;;;;;;;;;11.80;44.30;;;;;;5005439;28;19917;-78
2023/04/04 08:16:31;;;;;;;;;;;11.50;43.80;;;;;;5018411;28;20142;-78
2023/04/04 08:18:59;;;;;;;;;;;10.50;44.80;;;;;;5028212;28;20456;-78
2023/04/04 08:21:27;;;;;;;;;;;10.30;45.90;;;;;;5001633;28;20010;-78
2023/04/04 08:23:55;;;;;;;;;;;12.80;44.00;;;;;;5009278;28;19914;-78
2023/04/04 08:26:21;;;;;;;;;;;13.20;41.50;;;;;;5007021;28;19905;-79
2023/04/04 08:28:49;;;;;;;;;;;12.30;42.90;;;;;;5011412;28;20328;-79
2023/04/04 08:31:18;;;;;;;;;;;11.30;44.00;;;;;;5018599;28;19971;-78
2023/04/04 08:33:44;;;;;;;;;;;11.40;44.70;;;;;;5019660;28;20270;-78
2023/04/04 08:36:15;;;;;;;;;;;11.00;42.90;;;;;;5016298;28;19984;-79
2023/04/04 08:38:40;;;;;;;;;;;10.10;45.30;;;;;;5008009;28;19916;-78
2023/04/04 08:41:17;;;;;;;;;;;11.70;45.00;;;;;;5030177;28;21003;-79
2023/04/04 08:43:45;;;;;;;;;;;13.30;42.90;;;;;;5023290;28;19972;-79
2023/04/04 08:46:12;;;;;;;;;;;10.80;43.50;;;;;;5028946;28;19915;-79
2023/04/04 08:48:44;;;;;;;;;;;10.50;45.50;;;;;;5024062;28;19952;-79
2023/04/04 08:51:18;;;;;;;;;;;10.90;45.00;;;;;;5025427;28;19905;-79
2023/04/04 08:53:49;;;;;;;;;;;11.20;44.40;;;;;;5020187;28;19991;-78
2023/04/04 08:56:17;;;;;;;;;;;10.60;44.60;;;;;;5022390;28;19909;-78
2023/04/04 08:58:44;;;;;;;;;;;9.50;46.30;;;;;;5012670;28;19905;-78
2023/04/04 09:01:10;;;;;;;;;;;8.80;47.10;;;;;;5020727;28;19905;-78
2023/04/04 09:03:42;;;;;;;;;;;8.70;47.20;;;;;;5017930;28;19920;-79
2023/04/04 09:06:18;;;;;;;;;;;8.50;48.70;;;;;;5017996;28;20389;-80
2023/04/04 09:08:43;;;;;;;;;;;9.10;47.50;;;;;;5014384;28;19962;-79
2023/04/04 09:11:16;;;;;;;;;;;10.40;47.90;;;;;;5023235;28;19909;-78
2023/04/04 09:13:44;;;;;;;;;;;14.00;42.60;;;;;;5023232;28;20369;-78
2023/04/04 09:16:14;;;;;;;;;;;13.90;41.20;;;;;;5015565;28;19908;-78
2023/04/04 09:18:40;;;;;;;;;;;15.30;40.40;;;;;;5025512;28;20362;-78
2023/04/04 09:21:15;;;;;;;;;;;13.60;40.50;;;;;;5021780;28;19951;-79
2023/04/04 09:24:00;;;;;;;;;;;15.90;40.40;;;;;;5028510;28;19908;-78
2023/04/04 09:27:02;;;;;;;;;;;16.00;38.70;;;;;;5026053;28;19913;-79
2023/04/04 09:29:32;;;;;;;;;;;15.80;38.50;;;;;;5003650;28;19920;-79
2023/04/04 09:32:15;;;;;;;;;;;16.40;39.30;;;;;;5015643;28;19912;-79
2023/04/04 09:34:45;;;;;;;;;;;16.90;38.40;;;;;;5030464;28;19966;-78
2023/04/04 09:37:14;;;;;;;;;;;18.30;37.00;;;;;;5020927;28;19912;-80
2023/04/04 09:39:52;;;;;;;;;;;19.20;36.30;;;;;;5016770;28;19905;-79
2023/04/04 09:42:21;;;;;;;;;;;20.90;35.30;;;;;;5018000;28;19913;-79
2023/04/04 09:44:53;;;;;;;;;;;22.00;34.70;;;;;;5007844;28;20370;-78
2023/04/04 09:47:24;;;;;;;;;;;20.80;33.20;;;;;;5030079;28;19927;-78
2023/04/04 09:49:51;;;;;;;;;;;19.80;35.70;;;;;;5014943;28;20004;-78
2023/04/04 09:52:20;;;;;;;;;;;21.20;34.40;;;;;;5022011;28;19992;-78
2023/04/04 09:55:03;;;;;;;;;;;19.80;34.50;;;;;;5004678;28;19940;-78
2023/04/04 09:57:31;;;;;;;;;;;18.30;35.70;;;;;;5024806;28;20354;-79
2023/04/04 10:00:03;;;;;;;;;;;18.80;36.50;;;;;;5028300;28;19919;-80
2023/04/04 10:02:30;;;;;;;;;;;20.10;36.00;;;;;;5021786;28;19913;-78
2023/04/04 10:04:57;;;;;;;;;;;19.00;35.20;;;;;;5031704;28;19912;-78
2023/04/04 10:07:31;;;;;;;;;;;17.40;36.20;;;;;;5025890;28;20000;-78
2023/04/04 10:10:04;;;;;;;;;;;19.40;36.40;;;;;;5019187;28;19931;-78
2023/04/04 10:12:31;;;;;;;;;;;20.60;35.30;;;;;;5013082;28;19913;-79
2023/04/04 10:15:00;;;;;;;;;;;23.00;33.90;;;;;;5017527;28;20369;-79
2023/04/04 10:17:38;;;;;;;;;;;23.30;32.50;;;;;;5016547;28;19920;-78
2023/04/04 10:20:09;;;;;;;;;;;23.10;31.70;;;;;;5028830;28;20350;-79
2023/04/04 10:22:41;;;;;;;;;;;22.10;32.50;;;;;;5021851;28;19916;-79
2023/04/04 10:25:08;;;;;;;;;;;20.10;33.50;;;;;;5021590;28;20601;-79
2023/04/04 10:27:33;;;;;;;;;;;19.60;34.50;;;;;;5015049;28;21004;-79
2023/04/04 10:30:04;;;;;;;;;;;20.20;34.30;;;;;;5006542;28;19999;-78
2023/04/04 10:32:39;;;;;;;;;;;20.60;34.60;;;;;;5023712;28;20040;-79
2023/04/04 10:35:09;;;;;;;;;;;19.80;35.00;;;;;;5011662;28;19920;-79
2023/04/04 10:40:38;;;;;;;;;;;18.70;36.10;;;;;;5015953;28;19914;-79
2023/04/04 10:43:05;;;;;;;;;;;20.80;35.20;;;;;;5009566;28;19940;-79
2023/04/04 10:45:32;;;;;;;;;;;22.00;34.50;;;;;;5029870;28;19909;-80
2023/04/04 10:47:58;;;;;;;;;;;22.60;33.70;;;;;;5030686;28;19921;-79
2023/04/04 10:50:30;;;;;;;;;;;21.00;33.80;;;;;;5011638;28;20358;-80
2023/04/04 10:53:02;;;;;;;;;;;20.60;34.20;;;;;;5005251;28;19909;-79
2023/04/04 10:55:30;;;;;;;;;;;20.50;35.10;;;;;;5009039;28;19905;-78
2023/04/04 10:58:13;;;;;;;;;;;22.00;33.90;;;;;;5024630;28;19905;-79
2023/04/04 11:00:58;;;;;;;;;;;22.50;33.40;;;;;;5022813;28;19948;-79
2023/04/04 11:03:24;;;;;;;;;;;21.70;33.20;;;;;;5025054;28;19905;-79
2023/04/04 11:05:59;;;;;;;;;;;18.50;35.10;;;;;;5010330;28;19906;-78
2023/04/04 11:08:27;;;;;;;;;;;16.80;37.60;;;;;;5008980;28;20629;-78
2023/04/04 11:10:54;;;;;;;;;;;15.30;38.50;;;;;;5013871;28;19905;-78
2023/04/04 11:13:23;;;;;;;;;;;14.50;39.30;;;;;;5019020;28;19904;-78
2023/04/04 11:15:53;;;;;;;;;;;13.70;40.20;;;;;;5031649;28;19905;-77
2023/04/04 11:18:22;;;;;;;;;;;13.20;40.60;;;;;;5024019;28;19944;-79
2023/04/04 11:20:48;;;;;;;;;;;12.50;41.30;;;;;;5014760;28;20465;-79
2023/04/04 11:23:15;;;;;;;;;;;11.10;41.70;;;;;;5021126;28;19905;-78
2023/04/04 11:25:47;;;;;;;;;;;10.40;43.60;;;;;;5024274;28;19909;-77
2023/04/04 11:28:24;;;;;;;;;;;9.00;45.80;;;;;;5022699;28;19949;-79
2023/04/04 11:31:10;;;;;;;;;;;8.80;46.30;;;;;;5004309;28;19909;-77
2023/04/04 11:33:58;;;;;;;;;;;9.40;45.30;;;;;;5028619;28;20011;-78
2023/04/04 11:36:39;;;;;;;;;;;9.10;46.30;;;;;;5005690;28;20386;-79
2023/04/04 11:39:18;;;;;;;;;;;8.70;47.60;;;;;;5008532;28;19913;-79
2023/04/04 11:42:02;;;;;;;;;;;9.00;47.20;;;;;;5010698;28;19909;-79
2023/04/04 11:44:29;;;;;;;;;;;9.70;45.70;;;;;;5018969;28;20413;-78
2023/04/04 11:47:03;;;;;;;;;;;9.70;44.90;;;;;;5014375;28;19928;-79
2023/04/04 11:49:30;;;;;;;;;;;10.00;45.30;;;;;;5000054;28;19999;-79
2023/04/04 11:51:58;;;;;;;;;;;10.30;44.80;;;;;;5011323;28;19906;-79
2023/04/04 11:54:28;;;;;;;;;;;10.40;45.10;;;;;;5009132;28;19905;-78
2023/04/04 11:57:03;;;;;;;;;;;10.60;45.10;;;;;;5021291;28;19909;-79
2023/04/04 11:59:29;;;;;;;;;;;10.50;44.90;;;;;;5010429;28;19909;-78
2023/04/04 12:01:56;;;;;;;;;;;10.50;45.40;;;;;;5019723;28;20000;-79
2023/04/04 12:04:24;;;;;;;;;;;10.60;45.00;;;;;;5020028;28;19909;-79
2023/04/04 12:06:51;;;;;;;;;;;10.50;45.50;;;;;;5020783;28;19984;-79
2023/04/04 12:09:19;;;;;;;;;;;10.40;44.90;;;;;;5030513;28;20240;-77
2023/04/04 12:11:45;;;;;;;;;;;10.50;45.20;;;;;;5021357;28;19912;-78
2023/04/04 12:14:18;;;;;;;;;;;10.20;45.00;;;;;;5030256;28;19911;-77
2023/04/04 12:16:50;;;;;;;;;;;10.10;45.40;;;;;;5020525;28;19954;-78
2023/04/04 12:19:17;;;;;;;;;;;10.30;45.60;;;;;;5001821;28;19909;-77
2023/04/04 12:21:43;;;;;;;;;;;9.90;45.20;;;;;;5023821;28;19909;-78
2023/04/04 12:24:10;;;;;;;;;;;9.20;45.90;;;;;;5033563;28;20032;-78
2023/04/04 12:26:37;;;;;;;;;;;9.40;46.70;;;;;;5015117;28;19913;-78
2023/04/04 12:29:04;;;;;;;;;;;9.30;46.50;;;;;;5010380;28;19920;-79
2023/04/04 12:31:31;;;;;;;;;;;9.50;47.20;;;;;;5007398;28;20961;-78
2023/04/04 12:33:56;;;;;;;;;;;9.60;47.00;;;;;;5007003;28;19909;-78
2023/04/04 12:36:30;;;;;;;;;;;9.90;46.40;;;;;;5024279;28;19911;-77
2023/04/04 12:39:01;;;;;;;;;;;9.80;46.70;;;;;;5006179;28;19915;-78
2023/04/04 12:41:32;;;;;;;;;;;9.80;46.20;;;;;;5015136;28;19952;-78
2023/04/04 12:44:03;;;;;;;;;;;9.70;45.80;;;;;;5012260;28;19931;-78
2023/04/04 12:46:40;;;;;;;;;;;9.70;45.40;;;;;;5021678;28;19927;-78
2023/04/04 12:49:09;;;;;;;;;;;9.20;46.70;;;;;;5031479;28;19924;-78
2023/04/04 12:51:36;;;;;;;;;;;9.10;46.10;;;;;;5025923;28;21478;-78
2023/04/04 12:54:06;;;;;;;;;;;9.30;46.10;;;;;;5019836;28;20048;-78
2023/04/04 12:56:34;;;;;;;;;;;9.40;46.10;;;;;;5013663;28;19993;-78
2023/04/04 12:59:04;;;;;;;;;;;9.70;46.00;;;;;;5016907;28;19952;-78
2023/04/04 13:01:31;;;;;;;;;;;9.70;46.10;;;;;;5009655;28;19935;-78
2023/04/04 13:04:03;;;;;;;;;;;9.40;45.10;;;;;;5022857;28;19970;-78
2023/04/04 13:06:29;;;;;;;;;;;9.50;45.80;;;;;;5019427;28;19955;-78
2023/04/04 13:08:56;;;;;;;;;;;9.10;46.00;;;;;;5030548;28;20005;-78
2023/04/04 13:11:22;;;;;;;;;;;9.10;45.70;;;;;;5021612;28;20299;-78
2023/04/04 13:13:58;;;;;;;;;;;8.90;45.30;;;;;;5013716;28;19912;-78
2023/04/04 13:16:38;;;;;;;;;;;8.50;46.30;;;;;;5018189;28;19931;-78
2023/04/04 13:19:03;;;;;;;;;;;8.80;46.50;;;;;;5000370;28;20997;-78
2023/04/04 13:21:29;;;;;;;;;;;9.00;45.60;;;;;;5011425;28;19958;-78
2023/04/04 13:23:55;;;;;;;;;;;9.10;45.90;;;;;;5003581;28;20396;-77
2023/04/04 13:26:25;;;;;;;;;;;8.70;46.60;;;;;;5022217;28;19909;-78
2023/04/04 13:28:51;;;;;;;;;;;8.60;47.50;;;;;;5004035;28;19963;-78
2023/04/04 13:31:20;;;;;;;;;;;8.90;47.30;;;;;;5012474;28;19984;-78
2023/04/04 13:33:46;;;;;;;;;;;9.00;46.80;;;;;;5012874;28;19915;-77
2023/04/04 13:36:13;;;;;;;;;;;9.10;46.80;;;;;;4998160;28;19905;-79
2023/04/04 13:38:46;;;;;;;;;;;9.20;46.70;;;;;;5004201;28;19912;-78
2023/04/04 13:41:17;;;;;;;;;;;9.30;46.50;;;;;;5017690;28;19905;-77
2023/04/04 13:43:45;;;;;;;;;;;9.30;46.60;;;;;;5022584;28;19959;-78
2023/04/04 13:46:10;;;;;;;;;;;9.20;46.30;;;;;;5008322;28;19913;-78
2023/04/04 13:48:41;;;;;;;;;;;8.80;45.70;;;;;;5003353;28;19919;-79
2023/04/04 13:51:12;;;;;;;;;;;8.80;46.40;;;;;;5017510;28;19913;-78
2023/04/04 13:53:40;;;;;;;;;;;8.80;46.40;;;;;;5016855;28;19909;-77
2023/04/04 13:56:15;;;;;;;;;;;8.70;45.90;;;;;;5023349;28;19916;-78
2023/04/04 13:58:41;;;;;;;;;;;8.20;46.80;;;;;;5017791;28;20254;-77
2023/04/04 14:01:12;;;;;;;;;;;8.30;46.90;;;;;;5028765;28;19913;-78
2023/04/04 14:03:40;;;;;;;;;;;8.50;47.00;;;;;;5019892;28;19905;-78
2023/04/04 14:06:16;;;;;;;;;;;8.70;47.40;;;;;;5024148;28;19912;-78
2023/04/04 14:08:50;;;;;;;;;;;8.90;46.90;;;;;;5020514;28;19992;-78
2023/04/04 14:11:24;;;;;;;;;;;8.90;46.50;;;;;;4997055;28;19905;-78
2023/04/04 14:13:54;;;;;;;;;;;9.00;46.40;;;;;;5009440;28;19905;-78
2023/04/04 14:16:34;;;;;;;;;;;8.80;46.70;;;;;;5021296;28;19905;-78
2023/04/04 14:19:05;;;;;;;;;;;8.80;47.10;;;;;;5022910;28;19913;-78
2023/04/04 14:21:34;;;;;;;;;;;8.50;47.80;;;;;;5019279;28;19920;-78
2023/04/04 14:24:03;;;;;;;;;;;8.50;47.40;;;;;;5009912;28;19909;-78
2023/04/04 14:26:30;;;;;;;;;;;8.40;46.90;;;;;;5024677;28;19905;-78
2023/04/04 14:28:58;;;;;;;;;;;8.40;47.40;;;;;;5026785;28;19916;-78
2023/04/04 14:31:27;;;;;;;;;;;8.40;46.90;;;;;;5014113;28;19912;-77
2023/04/04 14:33:54;;;;;;;;;;;8.50;47.00;;;;;;5010563;28;19912;-77
2023/04/04 14:36:20;;;;;;;;;;;8.50;46.90;;;;;;5026219;28;19905;-78
2023/04/04 14:38:46;;;;;;;;;;;8.20;47.50;;;;;;5024240;28;19908;-78
2023/04/04 14:41:15;;;;;;;;;;;8.30;47.50;;;;;;5026989;28;19912;-77
2023/04/04 14:43:43;;;;;;;;;;;8.10;47.00;;;;;;5024618;28;19955;-78
2023/04/04 14:46:12;;;;;;;;;;;8.00;46.60;;;;;;5008749;28;19915;-78
2023/04/04 14:48:43;;;;;;;;;;;8.00;47.10;;;;;;5023680;28;19917;-78
2023/04/04 14:51:10;;;;;;;;;;;8.20;49.00;;;;;;5020118;28;19941;-78
2023/04/04 14:53:41;;;;;;;;;;;8.30;48.20;;;;;;5029636;28;19914;-78
2023/04/04 14:56:07;;;;;;;;;;;8.30;47.50;;;;;;5023905;28;19917;-78